createdAt,value
2023-02-16T00:00:33.828Z,91.57
2023-02-16T00:01:33.783Z,92.24
2023-02-16T00:02:33.776Z,92.24
2023-02-16T00:03:33.747Z,92.43
2023-02-16T00:04:33.644Z,91.67
2023-02-16T00:05:33.693Z,92.52
2023-02-16T00:06:33.540Z,92.24
2023-02-16T00:07:33.491Z,92.71
2023-02-16T00:08:33.440Z,92.43
2023-02-16T00:09:33.399Z,92.52
2023-02-16T00:10:33.365Z,92.24
2023-02-16T00:11:33.329Z,92.24
2023-02-16T00:12:33.247Z,92.14
2023-02-16T00:13:33.203Z,92.24
2023-02-16T00:14:33.152Z,92.05
2023-02-16T00:15:33.135Z,92.43
2023-02-16T00:16:33.058Z,92.43
2023-02-16T00:17:33.175Z,92.14
2023-02-16T00:18:32.960Z,92.80
2023-02-16T00:19:32.918Z,92.90
2023-02-16T00:20:32.860Z,92.61
2023-02-16T00:21:32.826Z,93.08
2023-02-16T00:22:32.767Z,93.18
2023-02-16T00:23:32.733Z,92.90
2023-02-16T00:24:32.667Z,92.80
2023-02-16T00:25:32.621Z,92.80
2023-02-16T00:26:32.569Z,92.43
2023-02-16T00:27:32.532Z,92.61
2023-02-16T00:28:32.477Z,92.71
2023-02-16T00:29:32.459Z,92.43
2023-02-16T00:30:32.458Z,91.67
2023-02-16T00:31:32.502Z,91.86
2023-02-16T00:32:32.281Z,91.29
2023-02-16T00:33:32.241Z,91.48
2023-02-16T00:34:32.182Z,91.48
2023-02-16T00:35:32.153Z,91.57
2023-02-16T00:36:32.085Z,91.29
2023-02-16T00:37:32.063Z,91.67
2023-02-16T00:38:31.993Z,91.86
2023-02-16T00:39:31.939Z,91.72
2023-02-16T00:40:31.893Z,91.72
2023-02-16T00:41:31.850Z,91.38
2023-02-16T00:42:31.806Z,91.57
2023-02-16T00:43:31.774Z,91.76
2023-02-16T00:44:31.699Z,91.86
2023-02-16T00:45:31.656Z,91.19
2023-02-16T00:46:31.701Z,91.00
2023-02-16T00:47:31.560Z,90.72
2023-02-16T00:48:31.507Z,90.58
2023-02-16T00:49:31.489Z,90.58
2023-02-16T00:50:31.408Z,90.39
2023-02-16T00:51:31.365Z,90.39
2023-02-16T00:52:31.321Z,90.20
2023-02-16T00:53:31.268Z,90.96
2023-02-16T00:54:32.165Z,90.96
2023-02-16T00:55:31.195Z,91.53
2023-02-16T00:56:31.120Z,91.24
2023-02-16T00:57:31.070Z,92.38
2023-02-16T00:58:31.022Z,92.29
2023-02-16T00:59:30.974Z,92.19
2023-02-16T01:00:30.929Z,91.81
2023-02-16T01:01:30.917Z,91.81
2023-02-16T01:02:30.826Z,91.91
2023-02-16T01:03:30.774Z,91.81
2023-02-16T01:04:30.750Z,92.29
2023-02-16T01:05:30.681Z,92.10
2023-02-16T01:06:30.634Z,92.00
2023-02-16T01:07:30.601Z,92.00
2023-02-16T01:08:30.532Z,91.91
2023-02-16T01:09:30.484Z,92.10
2023-02-16T01:10:30.433Z,91.81
2023-02-16T01:11:30.390Z,91.62
2023-02-16T01:12:30.333Z,92.00
2023-02-16T01:13:30.315Z,92.10
2023-02-16T01:14:30.242Z,91.91
2023-02-16T01:15:30.233Z,91.91
2023-02-16T01:16:30.136Z,92.00
2023-02-16T01:17:30.088Z,91.72
2023-02-16T01:18:30.039Z,92.00
2023-02-16T01:19:30.022Z,91.43
2023-02-16T01:20:29.951Z,92.10
2023-02-16T01:21:29.904Z,92.19
2023-02-16T01:22:29.845Z,92.19
2023-02-16T01:23:29.809Z,92.38
2023-02-16T01:24:29.748Z,91.81
2023-02-16T01:25:29.751Z,91.43
2023-02-16T01:26:29.653Z,91.43
2023-02-16T01:27:29.608Z,91.53
2023-02-16T01:28:29.565Z,91.62
2023-02-16T01:29:29.500Z,91.81
2023-02-16T01:30:29.524Z,92.19
2023-02-16T01:31:29.524Z,91.91
2023-02-16T01:32:29.355Z,92.29
2023-02-16T01:33:29.309Z,91.72
2023-02-16T01:34:29.256Z,92.10
2023-02-16T01:35:29.218Z,92.29
2023-02-16T01:36:29.160Z,92.57
2023-02-16T01:37:29.134Z,92.47
2023-02-16T01:38:29.069Z,92.38
2023-02-16T01:39:29.021Z,92.76
2023-02-16T01:40:28.965Z,92.38
2023-02-16T01:41:28.923Z,92.00
2023-02-16T01:42:28.868Z,91.91
2023-02-16T01:43:28.844Z,92.29
2023-02-16T01:44:28.775Z,92.29
2023-02-16T01:45:28.722Z,92.57
2023-02-16T01:46:28.778Z,92.38
2023-02-16T01:47:28.625Z,92.29
2023-02-16T01:48:28.579Z,92.66
2023-02-16T01:49:28.547Z,92.29
2023-02-16T01:50:28.475Z,92.38
2023-02-16T01:51:28.433Z,91.91
2023-02-16T01:52:28.382Z,91.43
2023-02-16T01:53:28.334Z,92.10
2023-02-16T01:54:28.285Z,92.00
2023-02-16T01:55:28.254Z,92.00
2023-02-16T01:56:28.186Z,92.57
2023-02-16T01:57:28.134Z,92.19
2023-02-16T01:58:28.091Z,92.38
2023-02-16T01:59:28.040Z,92.29
2023-02-16T02:00:27.993Z,92.47
2023-02-16T02:01:28.022Z,91.62
2023-02-16T02:02:27.981Z,91.43
2023-02-16T02:03:27.850Z,92.29
2023-02-16T02:04:27.803Z,92.00
2023-02-16T02:05:27.753Z,91.72
2023-02-16T02:06:27.814Z,91.81
2023-02-16T02:07:27.646Z,91.53
2023-02-16T02:08:27.610Z,91.72
2023-02-16T02:09:27.558Z,91.53
2023-02-16T02:10:27.504Z,91.62
2023-02-16T02:11:27.456Z,90.96
2023-02-16T02:12:27.417Z,91.15
2023-02-16T02:13:27.361Z,91.24
2023-02-16T02:14:27.308Z,91.15
2023-02-16T02:15:27.264Z,91.34
2023-02-16T02:16:27.294Z,91.34
2023-02-16T02:17:27.197Z,91.53
2023-02-16T02:18:27.111Z,92.29
2023-02-16T02:19:27.065Z,91.72
2023-02-16T02:20:27.018Z,91.05
2023-02-16T02:21:26.966Z,91.15
2023-02-16T02:22:26.939Z,91.05
2023-02-16T02:23:26.881Z,91.05
2023-02-16T02:24:26.834Z,91.24
2023-02-16T02:25:26.767Z,91.24
2023-02-16T02:26:26.749Z,91.24
2023-02-16T02:27:26.707Z,91.43
2023-02-16T02:28:26.628Z,91.43
2023-02-16T02:29:26.570Z,91.05
2023-02-16T02:30:26.537Z,91.62
2023-02-16T02:31:26.576Z,91.05
2023-02-16T02:32:26.428Z,91.24
2023-02-16T02:33:26.407Z,90.67
2023-02-16T02:34:26.334Z,90.67
2023-02-16T02:35:26.282Z,90.96
2023-02-16T02:36:26.225Z,90.91
2023-02-16T02:37:26.180Z,90.96
2023-02-16T02:38:26.134Z,91.10
2023-02-16T02:39:26.101Z,91.48
2023-02-16T02:40:26.031Z,91.10
2023-02-16T02:41:25.980Z,91.39
2023-02-16T02:42:25.935Z,91.39
2023-02-16T02:43:25.884Z,91.20
2023-02-16T02:44:25.866Z,92.14
2023-02-16T02:45:25.789Z,92.14
2023-02-16T02:46:25.828Z,92.43
2023-02-16T02:47:25.689Z,92.33
2023-02-16T02:48:25.641Z,92.43
2023-02-16T02:49:25.589Z,92.71
2023-02-16T02:50:25.579Z,92.71
2023-02-16T02:51:25.493Z,92.71
2023-02-16T02:52:25.446Z,92.14
2023-02-16T02:53:25.396Z,92.80
2023-02-16T02:54:25.348Z,92.61
2023-02-16T02:55:25.297Z,93.09
2023-02-16T02:56:25.259Z,92.71
2023-02-16T02:57:25.207Z,92.94
2023-02-16T02:58:25.168Z,93.13
2023-02-16T02:59:25.112Z,93.13
2023-02-16T03:00:25.055Z,92.90
2023-02-16T03:01:25.046Z,92.80
2023-02-16T03:02:24.957Z,92.24
2023-02-16T03:03:24.907Z,92.14
2023-02-16T03:04:24.868Z,91.58
2023-02-16T03:05:24.806Z,91.39
2023-02-16T03:06:24.773Z,91.58
2023-02-16T03:07:24.715Z,91.67
2023-02-16T03:08:24.697Z,91.58
2023-02-16T03:09:24.622Z,91.48
2023-02-16T03:10:24.566Z,91.01
2023-02-16T03:11:24.512Z,91.01
2023-02-16T03:12:24.468Z,91.29
2023-02-16T03:13:24.413Z,91.20
2023-02-16T03:14:24.389Z,91.96
2023-02-16T03:15:24.314Z,91.77
2023-02-16T03:16:24.360Z,92.14
2023-02-16T03:17:24.236Z,92.43
2023-02-16T03:18:24.172Z,92.52
2023-02-16T03:19:24.130Z,92.71
2023-02-16T03:20:24.066Z,92.80
2023-02-16T03:21:24.016Z,92.80
2023-02-16T03:22:23.995Z,92.52
2023-02-16T03:23:23.920Z,93.09
2023-02-16T03:24:23.871Z,92.61
2023-02-16T03:25:23.817Z,92.43
2023-02-16T03:26:23.791Z,92.80
2023-02-16T03:27:23.720Z,93.18
2023-02-16T03:28:23.694Z,93.28
2023-02-16T03:29:23.642Z,93.94
2023-02-16T03:30:23.694Z,94.04
2023-02-16T03:31:23.610Z,94.13
2023-02-16T03:32:23.477Z,93.09
2023-02-16T03:33:23.433Z,93.09
2023-02-16T03:34:23.392Z,93.18
2023-02-16T03:35:23.319Z,92.61
2023-02-16T03:36:23.287Z,92.90
2023-02-16T03:37:23.248Z,92.71
2023-02-16T03:38:23.186Z,92.80
2023-02-16T03:39:23.138Z,93.09
2023-02-16T03:40:23.088Z,93.09
2023-02-16T03:41:23.041Z,92.71
2023-02-16T03:42:22.988Z,92.80
2023-02-16T03:43:22.961Z,92.71
2023-02-16T03:44:22.883Z,92.52
2023-02-16T03:45:22.829Z,92.43
2023-02-16T03:46:22.779Z,92.52
2023-02-16T03:47:22.764Z,92.43
2023-02-16T03:48:22.690Z,92.80
2023-02-16T03:49:22.631Z,93.47
2023-02-16T03:50:22.617Z,92.90
2023-02-16T03:51:22.549Z,93.28
2023-02-16T03:52:22.491Z,93.09
2023-02-16T03:53:22.460Z,93.18
2023-02-16T03:54:22.396Z,93.37
2023-02-16T03:55:22.334Z,92.90
2023-02-16T03:56:22.296Z,92.90
2023-02-16T03:57:22.236Z,92.90
2023-02-16T03:58:22.202Z,93.18
2023-02-16T03:59:22.169Z,93.28
2023-02-16T04:00:22.092Z,93.37
2023-02-16T04:01:22.060Z,93.37
2023-02-16T04:02:22.045Z,93.85
2023-02-16T04:03:21.944Z,93.66
2023-02-16T04:04:21.905Z,94.23
2023-02-16T04:05:21.994Z,94.60
2023-02-16T04:06:21.801Z,94.51
2023-02-16T04:07:21.752Z,94.60
2023-02-16T04:08:21.708Z,94.51
2023-02-16T04:09:21.650Z,94.23
2023-02-16T04:10:21.622Z,94.32
2023-02-16T04:11:21.582Z,94.23
2023-02-16T04:12:21.515Z,94.42
2023-02-16T04:13:21.454Z,93.66
2023-02-16T04:14:21.409Z,94.04
2023-02-16T04:15:21.359Z,93.28
2023-02-16T04:16:21.367Z,93.18
2023-02-16T04:17:21.291Z,93.28
2023-02-16T04:18:21.212Z,93.66
2023-02-16T04:19:21.158Z,93.47
2023-02-16T04:20:21.145Z,93.18
2023-02-16T04:21:21.107Z,92.99
2023-02-16T04:22:21.017Z,93.18
2023-02-16T04:23:20.986Z,92.99
2023-02-16T04:24:20.910Z,92.99
2023-02-16T04:25:20.862Z,93.37
2023-02-16T04:26:20.848Z,94.04
2023-02-16T04:27:20.764Z,93.28
2023-02-16T04:28:20.713Z,92.99
2023-02-16T04:29:20.686Z,93.09
2023-02-16T04:30:20.659Z,93.28
2023-02-16T04:31:20.711Z,92.90
2023-02-16T04:32:20.525Z,92.61
2023-02-16T04:33:20.481Z,92.90
2023-02-16T04:34:20.411Z,92.71
2023-02-16T04:35:20.497Z,92.71
2023-02-16T04:36:20.325Z,92.71
2023-02-16T04:37:20.262Z,92.71
2023-02-16T04:38:20.221Z,92.90
2023-02-16T04:39:20.160Z,92.61
2023-02-16T04:40:20.116Z,92.71
2023-02-16T04:41:20.119Z,93.09
2023-02-16T04:42:20.023Z,92.80
2023-02-16T04:43:19.983Z,92.33
2023-02-16T04:44:19.917Z,91.96
2023-02-16T04:45:19.864Z,92.33
2023-02-16T04:46:19.856Z,92.14
2023-02-16T04:47:19.812Z,92.24
2023-02-16T04:48:19.721Z,91.58
2023-02-16T04:49:19.667Z,91.39
2023-02-16T04:50:19.631Z,92.52
2023-02-16T04:51:19.571Z,92.47
2023-02-16T04:52:19.525Z,92.80
2023-02-16T04:53:19.637Z,93.04
2023-02-16T04:54:19.427Z,93.32
2023-02-16T04:55:19.371Z,93.23
2023-02-16T04:56:19.326Z,93.42
2023-02-16T04:57:19.277Z,93.42
2023-02-16T04:58:19.225Z,93.23
2023-02-16T04:59:19.212Z,93.32
2023-02-16T05:00:19.127Z,94.04
2023-02-16T05:01:19.100Z,93.61
2023-02-16T05:02:19.034Z,94.08
2023-02-16T05:03:18.985Z,94.46
2023-02-16T05:04:19.005Z,94.74
2023-02-16T05:05:18.893Z,94.74
2023-02-16T05:06:18.828Z,95.45
2023-02-16T05:07:18.777Z,95.31
2023-02-16T05:08:20.839Z,95.55
2023-02-16T05:09:18.673Z,94.84
2023-02-16T05:10:18.637Z,94.65
2023-02-16T05:11:18.588Z,95.59
2023-02-16T05:12:18.530Z,95.36
2023-02-16T05:13:18.484Z,95.88
2023-02-16T05:14:18.450Z,95.69
2023-02-16T05:15:18.376Z,96.45
2023-02-16T05:16:18.410Z,95.97
2023-02-16T05:17:18.278Z,94.84
2023-02-16T05:18:18.228Z,95.21
2023-02-16T05:19:18.179Z,94.84
2023-02-16T05:20:18.163Z,94.74
2023-02-16T05:21:18.081Z,94.08
2023-02-16T05:22:18.032Z,93.51
2023-02-16T05:23:17.991Z,93.61
2023-02-16T05:24:17.932Z,93.89
2023-02-16T05:25:17.880Z,93.04
2023-02-16T05:26:17.855Z,93.80
2023-02-16T05:27:17.781Z,93.61
2023-02-16T05:28:17.786Z,93.89
2023-02-16T05:29:17.676Z,93.89
2023-02-16T05:30:17.704Z,93.99
2023-02-16T05:31:17.659Z,92.94
2023-02-16T05:32:17.629Z,93.23
2023-02-16T05:33:17.485Z,93.42
2023-02-16T05:34:17.460Z,93.42
2023-02-16T05:35:35.495Z,93.32
2023-02-16T05:36:17.385Z,93.23
2023-02-16T05:37:17.285Z,93.70
2023-02-16T05:38:17.380Z,93.99
2023-02-16T05:39:18.433Z,93.04
2023-02-16T05:40:17.137Z,93.23
2023-02-16T05:41:17.214Z,93.42
2023-02-16T05:42:17.034Z,93.61
2023-02-16T05:43:16.999Z,93.13
2023-02-16T05:44:17.089Z,93.32
2023-02-16T05:45:17.045Z,93.23
2023-02-16T05:46:16.870Z,93.51
2023-02-16T05:47:16.852Z,93.61
2023-02-16T05:48:16.740Z,93.51
2023-02-16T05:49:16.689Z,93.32
2023-02-16T05:50:16.664Z,93.13
2023-02-16T05:51:16.883Z,93.04
2023-02-16T05:52:16.544Z,93.23
2023-02-16T05:53:16.691Z,93.04
2023-02-16T05:54:16.463Z,93.13
2023-02-16T05:55:16.401Z,93.61
2023-02-16T05:56:16.558Z,93.42
2023-02-16T05:57:16.516Z,93.23
2023-02-16T05:58:16.246Z,93.23
2023-02-16T05:59:16.426Z,92.57
2023-02-16T06:03:47.848Z,92.10
2023-02-16T06:04:47.395Z,92.29
2023-02-16T06:05:47.598Z,93.04
2023-02-16T06:06:47.294Z,93.51
2023-02-16T06:07:47.500Z,94.08
2023-02-16T06:08:47.189Z,93.51
2023-02-16T06:09:47.636Z,93.89
2023-02-16T06:10:47.087Z,94.08
2023-02-16T06:11:47.242Z,93.89
2023-02-16T06:12:46.988Z,94.84
2023-02-16T06:13:47.046Z,95.03
2023-02-16T06:14:46.887Z,95.59
2023-02-16T06:15:47.314Z,95.03
2023-02-16T06:16:46.790Z,95.12
2023-02-16T06:17:46.870Z,95.40
2023-02-16T06:18:46.687Z,95.31
2023-02-16T06:19:46.683Z,95.40
2023-02-16T06:20:46.592Z,94.65
2023-02-16T06:21:46.706Z,94.56
2023-02-16T06:22:46.489Z,94.56
2023-02-16T06:23:46.718Z,94.56
2023-02-16T06:24:46.393Z,94.37
2023-02-16T06:25:47.546Z,94.46
2023-02-16T06:26:46.291Z,93.99
2023-02-16T06:27:46.589Z,94.08
2023-02-16T06:28:46.201Z,94.18
2023-02-16T06:29:46.138Z,94.46
2023-02-16T06:30:46.100Z,94.37
2023-02-16T06:31:46.278Z,94.18
2023-02-16T06:32:45.990Z,94.08
2023-02-16T06:33:46.170Z,94.46
2023-02-16T06:34:45.890Z,94.18
2023-02-16T06:35:45.842Z,93.99
2023-02-16T06:36:45.800Z,94.27
2023-02-16T06:38:07.913Z,93.61
2023-02-16T06:38:45.700Z,93.61
2023-02-16T06:39:46.012Z,93.80
2023-02-16T06:40:45.586Z,93.89
2023-02-16T06:41:45.549Z,92.94
2023-02-16T06:42:46.761Z,93.99
2023-02-16T06:43:45.445Z,93.70
2023-02-16T06:44:45.535Z,93.99
2023-02-16T06:45:45.542Z,93.13
2023-02-16T06:46:45.339Z,93.23
2023-02-16T06:47:45.239Z,92.57
2023-02-16T06:48:45.358Z,93.23
2023-02-16T06:49:45.157Z,92.66
2023-02-16T06:50:45.373Z,92.94
2023-02-16T06:51:45.224Z,92.85
2023-02-16T06:52:44.990Z,93.23
2023-02-16T06:53:44.950Z,93.61
2023-02-16T06:54:45.197Z,93.23
2023-02-16T06:55:44.879Z,93.23
2023-02-16T06:56:45.009Z,93.04
2023-02-16T06:57:44.777Z,93.04
2023-02-16T06:58:44.830Z,93.80
2023-02-16T06:59:44.645Z,93.80
2023-02-16T07:00:44.859Z,94.04
2023-02-16T07:01:45.482Z,94.08
2023-02-16T07:02:44.660Z,94.08
2023-02-16T07:03:44.805Z,93.28
2023-02-16T07:04:44.553Z,93.75
2023-02-16T07:05:44.345Z,93.04
2023-02-16T07:06:44.577Z,93.18
2023-02-16T07:07:44.255Z,93.37
2023-02-16T07:08:44.473Z,93.47
2023-02-16T07:09:44.177Z,92.90
2023-02-16T07:10:50.099Z,93.18
2023-02-16T07:11:44.058Z,93.66
2023-02-16T07:12:45.223Z,94.04
2023-02-16T07:13:43.972Z,93.66
2023-02-16T07:14:44.292Z,93.94
2023-02-16T07:15:44.069Z,93.18
2023-02-16T07:16:44.037Z,93.47
2023-02-16T07:17:43.767Z,92.90
2023-02-16T07:18:44.862Z,92.71
2023-02-16T07:19:43.664Z,92.33
2023-02-16T07:20:43.614Z,92.33
2023-02-16T07:21:45.810Z,92.33
2023-02-16T07:22:43.513Z,92.52
2023-02-16T07:24:04.660Z,92.33
2023-02-16T07:24:43.415Z,92.33
2023-02-16T07:25:43.485Z,92.14
2023-02-16T07:26:43.313Z,92.90
2023-02-16T07:27:43.903Z,92.80
2023-02-16T07:28:43.224Z,93.47
2023-02-16T07:29:43.305Z,92.71
2023-02-16T07:30:43.111Z,92.80
2023-02-16T07:31:43.136Z,92.24
2023-02-16T07:32:43.019Z,92.43
2023-02-16T07:33:43.133Z,92.05
2023-02-16T07:34:42.917Z,92.33
2023-02-16T07:35:43.041Z,92.33
2023-02-16T07:36:42.816Z,92.14
2023-02-16T07:37:42.780Z,92.52
2023-02-16T07:38:42.733Z,92.43
2023-02-16T07:39:43.073Z,92.24
2023-02-16T07:40:42.648Z,91.96
2023-02-16T07:41:42.878Z,91.77
2023-02-16T07:42:42.518Z,92.52
2023-02-16T07:43:42.497Z,91.77
2023-02-16T07:44:42.709Z,92.24
2023-02-16T07:45:42.416Z,92.24
2023-02-16T07:46:43.733Z,92.24
2023-02-16T07:47:42.280Z,92.05
2023-02-16T07:48:42.519Z,91.67
2023-02-16T07:49:42.171Z,92.05
2023-02-16T07:50:42.325Z,92.14
2023-02-16T07:51:42.074Z,91.77
2023-02-16T07:52:42.345Z,91.77
2023-02-16T07:53:42.200Z,91.81
2023-02-16T07:54:41.928Z,92.19
2023-02-16T07:55:42.156Z,92.29
2023-02-16T07:56:41.849Z,92.47
2023-02-16T07:57:41.970Z,92.29
2023-02-16T07:58:41.756Z,92.19
2023-02-16T07:59:42.216Z,92.38
2023-02-16T08:00:41.886Z,92.10
2023-02-16T08:01:41.590Z,91.53
2023-02-16T08:02:41.833Z,91.72
2023-02-16T08:03:41.483Z,91.62
2023-02-16T08:04:41.716Z,90.96
2023-02-16T08:05:41.400Z,91.05
2023-02-16T08:06:41.727Z,91.43
2023-02-16T08:07:41.297Z,90.96
2023-02-16T08:08:41.544Z,90.86
2023-02-16T08:09:41.293Z,91.24
2023-02-16T08:10:41.342Z,91.72
2023-02-16T08:11:41.099Z,91.34
2023-02-16T08:12:41.363Z,91.24
2023-02-16T08:13:41.005Z,91.15
2023-02-16T08:14:41.072Z,91.43
2023-02-16T08:15:42.152Z,91.24
2023-02-16T08:16:42.165Z,91.05
2023-02-16T08:17:40.807Z,91.15
2023-02-16T08:18:40.898Z,91.24
2023-02-16T08:19:40.719Z,91.05
2023-02-16T08:21:02.373Z,91.29
2023-02-16T08:21:40.645Z,91.29
2023-02-16T08:22:40.568Z,91.48
2023-02-16T08:23:40.521Z,91.29
2023-02-16T08:24:40.737Z,91.10
2023-02-16T08:25:40.420Z,91.29
2023-02-16T08:26:40.550Z,91.57
2023-02-16T08:27:40.501Z,91.19
2023-02-16T08:28:40.275Z,91.29
2023-02-16T08:29:40.465Z,91.76
2023-02-16T08:30:40.176Z,90.91
2023-02-16T08:31:40.379Z,90.81
2023-02-16T08:32:40.100Z,91.10
2023-02-16T08:33:40.033Z,91.29
2023-02-16T08:34:42.897Z,91.29
2023-02-16T08:35:40.105Z,91.76
2023-02-16T08:36:39.898Z,91.57
2023-02-16T08:37:40.325Z,91.76
2023-02-16T08:38:39.801Z,91.67
2023-02-16T08:39:39.738Z,91.67
2023-02-16T08:40:39.841Z,91.76
2023-02-16T08:41:39.672Z,91.71
2023-02-16T08:42:39.651Z,91.71
2023-02-16T08:43:39.701Z,91.33
2023-02-16T08:44:39.739Z,91.43
2023-02-16T08:45:39.484Z,91.62
2023-02-16T08:46:39.465Z,91.43
2023-02-16T08:47:39.351Z,91.33
2023-02-16T08:48:39.482Z,91.33
2023-02-16T08:49:39.508Z,91.14
2023-02-16T08:50:39.207Z,90.95
2023-02-16T08:51:39.163Z,91.24
2023-02-16T08:52:39.304Z,90.95
2023-02-16T08:53:39.058Z,90.86
2023-02-16T08:54:39.115Z,91.24
2023-02-16T08:55:38.996Z,90.72
2023-02-16T08:56:38.924Z,90.72
2023-02-16T08:57:38.868Z,90.53
2023-02-16T08:58:40.027Z,90.53
2023-02-16T08:59:38.774Z,89.48
2023-02-16T09:00:38.954Z,89.67
2023-02-16T09:01:38.829Z,89.77
2023-02-16T09:02:38.783Z,89.11
2023-02-16T09:03:38.572Z,89.29
2023-02-16T09:04:38.595Z,89.11
2023-02-16T09:05:38.488Z,89.01
2023-02-16T09:06:38.585Z,89.01
2023-02-16T09:07:38.593Z,88.92
2023-02-16T09:08:38.343Z,88.92
2023-02-16T09:09:39.714Z,88.63
2023-02-16T09:10:38.463Z,88.48
2023-02-16T09:11:38.410Z,88.58
2023-02-16T09:12:38.152Z,89.06
2023-02-16T09:13:38.103Z,88.58
2023-02-16T09:14:39.257Z,89.06
2023-02-16T09:15:38.490Z,89.25
2023-02-16T09:16:38.080Z,89.81
2023-02-16T09:17:37.913Z,89.53
2023-02-16T09:18:37.863Z,89.25
2023-02-16T09:19:37.830Z,89.34
2023-02-16T09:20:37.867Z,89.15
2023-02-16T09:21:37.927Z,89.06
2023-02-16T09:22:37.883Z,89.43
2023-02-16T09:23:37.630Z,89.34
2023-02-16T09:24:37.596Z,89.53
2023-02-16T09:25:37.547Z,89.72
2023-02-16T09:26:37.704Z,89.72
2023-02-16T09:27:37.442Z,89.62
2023-02-16T09:28:37.520Z,90.19
2023-02-16T09:29:37.347Z,89.95
2023-02-16T09:30:37.378Z,89.76
2023-02-16T09:31:37.590Z,89.67
2023-02-16T09:32:37.229Z,90.05
2023-02-16T09:33:37.242Z,89.39
2023-02-16T09:34:37.106Z,89.95
2023-02-16T09:35:37.059Z,90.09
2023-02-16T09:36:37.012Z,89.72
2023-02-16T09:37:37.069Z,89.00
2023-02-16T09:38:37.128Z,85.72
2023-02-16T09:39:37.082Z,82.57
2023-02-16T09:40:36.825Z,79.66
2023-02-16T09:41:36.789Z,76.56
2023-02-16T09:42:36.903Z,72.63
2023-02-16T09:43:36.693Z,69.33
2023-02-16T09:44:36.714Z,67.07
2023-02-16T09:45:36.600Z,64.43
2023-02-16T09:46:36.569Z,63.42
2023-02-16T09:47:36.514Z,61.85
2023-02-16T09:48:59.560Z,59.49
2023-02-16T09:49:36.426Z,57.61
2023-02-16T09:50:53.749Z,57.83
2023-02-16T09:51:36.351Z,57.86
2023-02-16T09:52:36.361Z,56.45
2023-02-16T09:53:36.259Z,53.50
2023-02-16T09:54:37.399Z,51.23
2023-02-16T09:55:36.215Z,50.56
2023-02-16T09:56:36.389Z,50.10
2023-02-16T09:57:36.122Z,48.21
2023-02-16T09:58:36.257Z,46.28
2023-02-16T09:59:36.013Z,46.59
2023-02-16T10:00:36.217Z,46.72
2023-02-16T10:01:35.984Z,48.35
2023-02-16T10:02:36.060Z,47.61
2023-02-16T10:03:35.858Z,47.15
2023-02-16T10:04:35.819Z,47.82
2023-02-16T10:05:35.844Z,45.83
2023-02-16T10:06:35.901Z,44.48
2023-02-16T10:07:35.862Z,42.38
2023-02-16T10:08:35.666Z,41.22
2023-02-16T10:09:35.624Z,40.26
2023-02-16T10:10:35.590Z,40.45
2023-02-16T10:11:35.683Z,41.41
2023-02-16T10:12:35.534Z,42.40
2023-02-16T10:13:35.725Z,41.46
2023-02-16T10:14:35.441Z,39.62
2023-02-16T10:15:35.445Z,41.48
2023-02-16T10:16:35.365Z,40.92
2023-02-16T10:17:35.417Z,39.47
2023-02-16T10:18:35.488Z,39.87
2023-02-16T10:19:35.430Z,38.91
2023-02-16T10:20:35.218Z,36.90
2023-02-16T10:21:35.181Z,35.55
2023-02-16T10:22:35.147Z,34.97
2023-02-16T10:23:35.267Z,33.52
2023-02-16T10:24:35.072Z,33.63
2023-02-16T10:25:35.272Z,33.54
2023-02-16T10:26:34.997Z,33.25
2023-02-16T10:27:35.089Z,32.67
2023-02-16T10:28:34.938Z,33.26
2023-02-16T10:29:35.310Z,33.45
2023-02-16T10:30:34.856Z,33.45
2023-02-16T10:31:35.040Z,33.95
2023-02-16T10:32:37.275Z,33.28
2023-02-16T10:33:34.923Z,33.29
2023-02-16T10:34:34.724Z,33.29
2023-02-16T10:35:34.940Z,33.20
2023-02-16T10:36:35.464Z,32.04
2023-02-16T10:37:34.849Z,31.57
2023-02-16T10:38:34.583Z,31.47
2023-02-16T10:39:34.666Z,31.97
2023-02-16T10:40:34.509Z,32.17
2023-02-16T10:41:34.680Z,30.91
2023-02-16T10:42:34.441Z,29.95
2023-02-16T10:43:34.493Z,28.89
2023-02-16T10:44:34.455Z,29.27
2023-02-16T10:45:34.521Z,29.08
2023-02-16T10:46:34.317Z,29.27
2023-02-16T10:47:35.552Z,28.79
2023-02-16T10:48:34.257Z,28.89
2023-02-16T10:49:34.198Z,28.08
2023-02-16T10:50:34.189Z,28.76
2023-02-16T10:51:34.355Z,29.16
2023-02-16T10:52:34.101Z,28.49
2023-02-16T10:53:35.182Z,27.81
2023-02-16T10:54:34.216Z,28.69
2023-02-16T10:55:34.008Z,28.02
2023-02-16T10:56:33.988Z,27.25
2023-02-16T10:57:34.194Z,27.84
2023-02-16T10:58:33.926Z,27.66
2023-02-16T10:59:34.199Z,26.20
2023-02-16T11:00:33.838Z,26.49
2023-02-16T11:01:33.870Z,27.28
2023-02-16T11:02:33.843Z,26.40
2023-02-16T11:03:33.729Z,26.89
2023-02-16T11:04:33.909Z,26.50
2023-02-16T11:05:33.684Z,26.79
2023-02-16T11:06:36.073Z,26.01
2023-02-16T11:07:33.693Z,26.12
2023-02-16T11:08:33.656Z,26.12
2023-02-16T11:09:33.531Z,26.12
2023-02-16T11:10:33.671Z,25.74
2023-02-16T11:11:33.462Z,25.24
2023-02-16T11:12:33.428Z,25.82
2023-02-16T11:13:33.533Z,25.04
2023-02-16T11:14:33.491Z,25.64
2023-02-16T11:15:33.366Z,25.25
2023-02-16T11:16:33.509Z,25.05
2023-02-16T11:17:33.265Z,25.36
2023-02-16T11:18:33.318Z,25.65
2023-02-16T11:19:33.210Z,25.16
2023-02-16T11:20:33.343Z,23.50
2023-02-16T11:21:33.402Z,22.72
2023-02-16T11:22:33.349Z,23.30
2023-02-16T11:23:33.152Z,22.90
2023-02-16T11:24:33.046Z,22.60
2023-02-16T11:25:34.193Z,21.62
2023-02-16T11:26:32.961Z,22.39
2023-02-16T11:27:33.181Z,23.94
2023-02-16T11:28:32.919Z,25.01
2023-02-16T11:29:32.879Z,25.21
2023-02-16T11:30:33.007Z,23.16
2023-02-16T11:31:33.184Z,23.07
2023-02-16T11:32:33.012Z,23.75
2023-02-16T11:33:32.749Z,22.78
2023-02-16T11:34:33.848Z,22.49
2023-02-16T11:35:32.666Z,21.42
2023-02-16T11:36:32.841Z,21.61
2023-02-16T11:37:32.637Z,22.40
2023-02-16T11:38:32.653Z,21.72
2023-02-16T11:39:32.528Z,21.23
2023-02-16T11:40:32.504Z,21.13
2023-02-16T11:41:35.104Z,21.40
2023-02-16T11:42:32.582Z,21.50
2023-02-16T11:43:32.629Z,22.36
2023-02-16T11:44:32.585Z,22.16
2023-02-16T11:45:32.330Z,22.74
2023-02-16T11:46:32.312Z,23.22
2023-02-16T11:47:32.262Z,23.21
2023-02-16T11:48:32.323Z,23.19
2023-02-16T11:49:32.224Z,23.66
2023-02-16T11:50:32.320Z,24.43
2023-02-16T11:51:32.113Z,24.62
2023-02-16T11:52:32.076Z,24.52
2023-02-16T11:53:32.309Z,24.81
2023-02-16T11:54:32.245Z,24.82
2023-02-16T11:55:31.977Z,25.50
2023-02-16T11:56:32.057Z,24.72
2023-02-16T11:57:31.897Z,25.97
2023-02-16T11:58:31.869Z,25.70
2023-02-16T11:59:31.981Z,25.40
2023-02-16T12:00:31.826Z,25.49
2023-02-16T12:01:32.194Z,25.79
2023-02-16T12:02:31.733Z,25.03
2023-02-16T12:03:31.777Z,24.76
2023-02-16T12:04:31.663Z,23.97
2023-02-16T12:05:31.939Z,24.26
2023-02-16T12:06:31.603Z,24.63
2023-02-16T12:07:31.630Z,24.63
2023-02-16T12:08:31.518Z,24.84
2023-02-16T12:09:32.724Z,25.23
2023-02-16T12:10:31.552Z,24.84
2023-02-16T12:11:31.411Z,24.74
2023-02-16T12:12:31.451Z,24.95
2023-02-16T12:13:31.342Z,24.35
2023-02-16T12:14:31.469Z,24.66
2023-02-16T12:15:31.378Z,24.27
2023-02-16T12:16:31.520Z,24.37
2023-02-16T12:17:31.202Z,24.46
2023-02-16T12:18:31.340Z,23.90
2023-02-16T12:19:31.138Z,23.22
2023-02-16T12:20:31.103Z,23.70
2023-02-16T12:21:31.165Z,23.23
2023-02-16T12:22:31.128Z,23.33
2023-02-16T12:23:30.999Z,23.03
2023-02-16T12:24:31.133Z,23.33
2023-02-16T12:25:30.932Z,22.55
2023-02-16T12:26:30.905Z,22.64
2023-02-16T12:27:31.153Z,22.92
2023-02-16T12:28:30.826Z,23.01
2023-02-16T12:29:30.970Z,22.82
2023-02-16T12:30:30.778Z,23.00
2023-02-16T12:31:30.998Z,23.39
2023-02-16T12:32:30.686Z,23.01
2023-02-16T12:33:31.003Z,23.11
2023-02-16T12:34:30.616Z,23.88
2023-02-16T12:35:30.803Z,23.22
2023-02-16T12:36:30.550Z,23.02
2023-02-16T12:37:30.615Z,22.16
2023-02-16T12:38:30.478Z,22.44
2023-02-16T12:39:30.628Z,22.34
2023-02-16T12:40:30.434Z,22.16
2023-02-16T12:41:30.642Z,22.34
2023-02-16T12:42:30.337Z,23.22
2023-02-16T12:43:30.305Z,23.33
2023-02-16T12:44:30.265Z,23.23
2023-02-16T12:45:33.747Z,22.65
2023-02-16T12:46:30.210Z,22.28
2023-02-16T12:47:30.272Z,21.99
2023-02-16T12:48:30.129Z,22.78
2023-02-16T12:49:30.093Z,22.50
2023-02-16T12:50:30.059Z,22.20
2023-02-16T12:51:30.406Z,21.84
2023-02-16T12:52:29.998Z,21.27
2023-02-16T12:53:30.229Z,20.61
2023-02-16T12:54:29.925Z,19.44
2023-02-16T12:55:29.892Z,19.26